Time;durP1;ratioP1;P1;durP2;ratioP2;P2;SDS_P1;SDS_P2;PMS_P1;PMS_P2;Temp;Humidity;BMP_temperature;BMP_pressure;BME280_temperature;BME280_humidity;BME280_pressure;Samples;Min_cycle;Max_cycle;Signal;HPM_P1;HPM_P2
2023/04/06 00:02:05;;;;;;;14.37;8.17;;;1.60;99.90;;;;;;5054062;28;20193;-49
2023/04/06 00:04:31;;;;;;;17.67;8.47;;;1.60;99.90;;;;;;5054394;28;20562;-49
2023/04/06 00:06:56;;;;;;;14.20;9.20;;;1.50;99.90;;;;;;5054326;28;20223;-48
2023/04/06 00:09:22;;;;;;;18.60;8.83;;;1.50;99.90;;;;;;5054172;28;20237;-49
2023/04/06 00:11:47;;;;;;;16.73;9.67;;;1.50;99.90;;;;;;5053897;28;20197;-51
2023/04/06 00:14:13;;;;;;;20.40;9.50;;;1.40;99.90;;;;;;5054180;28;20188;-50
2023/04/06 00:16:39;;;;;;;19.73;9.83;;;1.40;99.90;;;;;;5054038;28;20320;-51
2023/04/06 00:19:04;;;;;;;19.57;10.10;;;1.30;99.90;;;;;;5053824;28;20565;-50
2023/04/06 00:21:30;;;;;;;16.97;9.20;;;1.40;99.90;;;;;;5054046;28;20275;-48
2023/04/06 00:23:56;;;;;;;22.03;10.40;;;1.40;99.90;;;;;;5053867;28;20172;-49
2023/04/06 00:26:22;;;;;;;21.20;9.20;;;1.30;99.90;;;;;;5053761;28;20659;-50
2023/04/06 00:28:49;;;;;;;18.80;10.13;;;1.30;99.90;;;;;;5054185;28;20176;-49
2023/04/06 00:31:15;;;;;;;19.53;10.70;;;1.30;99.90;;;;;;5053815;28;20193;-49
2023/04/06 00:33:41;;;;;;;19.10;10.73;;;1.20;99.90;;;;;;5053534;28;20298;-51
2023/04/06 00:36:06;;;;;;;16.33;9.30;;;1.20;99.90;;;;;;5053429;28;20200;-48
2023/04/06 00:38:32;;;;;;;21.30;11.17;;;1.10;99.90;;;;;;5053742;28;20187;-49
2023/04/06 00:40:57;;;;;;;17.23;9.90;;;1.10;99.90;;;;;;5053896;28;20276;-48
2023/04/06 00:43:24;;;;;;;19.00;9.90;;;1.10;99.90;;;;;;5053018;28;20176;-49
2023/04/06 00:45:50;;;;;;;17.50;9.37;;;1.00;99.90;;;;;;5053314;28;20227;-51
2023/04/06 00:48:16;;;;;;;16.47;10.13;;;1.00;99.90;;;;;;5053318;28;20216;-51
2023/04/06 00:50:42;;;;;;;16.70;10.37;;;1.00;99.90;;;;;;5053333;28;20641;-49
2023/04/06 00:53:07;;;;;;;17.50;10.37;;;1.00;99.90;;;;;;5053266;28;20267;-49
2023/04/06 00:55:35;;;;;;;17.37;9.37;;;1.00;99.90;;;;;;5053511;28;20200;-49
2023/04/06 00:58:01;;;;;;;17.90;9.77;;;0.90;99.90;;;;;;5053356;28;20203;-48
2023/04/06 01:00:27;;;;;;;15.90;9.87;;;0.90;99.90;;;;;;5053463;28;20180;-49
2023/04/06 01:02:52;;;;;;;22.00;10.67;;;0.80;99.90;;;;;;5053371;28;20556;-50
2023/04/06 01:05:18;;;;;;;17.80;10.27;;;0.80;99.90;;;;;;5053727;28;20187;-49
2023/04/06 01:07:44;;;;;;;17.77;11.10;;;0.80;99.90;;;;;;5053692;28;20172;-48
2023/04/06 01:10:09;;;;;;;15.80;10.00;;;0.80;99.90;;;;;;5053371;28;20168;-48
2023/04/06 01:12:37;;;;;;;19.80;9.93;;;0.70;99.90;;;;;;5053070;28;20592;-49
2023/04/06 01:15:03;;;;;;;22.33;10.53;;;0.70;99.90;;;;;;5053325;28;20180;-49
2023/04/06 01:17:28;;;;;;;15.90;9.83;;;0.60;99.90;;;;;;5053290;28;20199;-49
2023/04/06 01:19:54;;;;;;;15.13;9.80;;;0.60;99.90;;;;;;5053069;28;20255;-48
2023/04/06 01:22:20;;;;;;;19.37;10.33;;;0.60;99.90;;;;;;5052178;28;20200;-50
2023/04/06 01:24:46;;;;;;;17.93;9.97;;;0.50;99.90;;;;;;5053312;28;20176;-49
2023/04/06 01:27:12;;;;;;;16.77;10.13;;;0.50;99.90;;;;;;5053242;28;20250;-50
2023/04/06 01:29:40;;;;;;;22.53;10.73;;;0.50;99.90;;;;;;5053088;28;20645;-48
2023/04/06 01:32:06;;;;;;;19.23;10.20;;;0.50;99.90;;;;;;5053256;28;20196;-49
2023/04/06 01:34:32;;;;;;;20.17;10.37;;;0.40;99.90;;;;;;5053463;28;20267;-48
2023/04/06 01:36:57;;;;;;;17.33;9.77;;;0.40;99.90;;;;;;5052857;28;20633;-50
2023/04/06 01:39:23;;;;;;;15.37;8.80;;;0.40;99.90;;;;;;5052897;28;20660;-50
2023/04/06 01:41:48;;;;;;;17.53;10.50;;;0.30;99.90;;;;;;5052875;28;20664;-49
2023/04/06 01:44:18;;;;;;;16.43;9.23;;;0.30;99.90;;;;;;5052777;28;20184;-49
2023/04/06 01:46:44;;;;;;;17.20;10.23;;;0.30;99.90;;;;;;5053022;28;20173;-48
2023/04/06 01:49:09;;;;;;;15.23;9.33;;;0.30;99.90;;;;;;5052783;28;20191;-49
2023/04/06 01:51:35;;;;;;;20.90;10.37;;;0.30;99.90;;;;;;5052735;28;20241;-47
2023/04/06 01:54:00;;;;;;;16.77;9.57;;;0.20;99.90;;;;;;5053620;28;20180;-49
2023/04/06 01:56:26;;;;;;;15.63;9.40;;;0.20;99.90;;;;;;5056622;28;20325;-49
2023/04/06 01:58:51;;;;;;;14.43;9.60;;;0.20;99.90;;;;;;5056323;28;20237;-49
2023/04/06 02:01:17;;;;;;;18.07;9.67;;;0.20;99.90;;;;;;5056580;28;20203;-48
2023/04/06 02:03:43;;;;;;;16.27;9.67;;;0.10;99.90;;;;;;5056539;28;20668;-49
2023/04/06 02:06:08;;;;;;;20.53;10.07;;;0.10;99.90;;;;;;5057533;28;20191;-50
2023/04/06 02:08:34;;;;;;;17.07;9.50;;;0.10;99.90;;;;;;5056869;28;20176;-47
2023/04/06 02:10:59;;;;;;;14.07;9.33;;;0.10;99.90;;;;;;5056356;28;20220;-49
2023/04/06 02:13:25;;;;;;;17.93;9.33;;;0.00;99.90;;;;;;5056642;28;20176;-48
2023/04/06 02:15:50;;;;;;;15.10;9.30;;;0.00;99.90;;;;;;5056213;28;20242;-48
2023/04/06 02:18:18;;;;;;;15.40;9.60;;;0.00;99.90;;;;;;5056748;28;20172;-48
2023/04/06 02:20:44;;;;;;;16.13;9.30;;;0.00;99.90;;;;;;5056494;28;20203;-49
2023/04/06 02:23:09;;;;;;;13.90;8.87;;;0.00;99.90;;;;;;5056816;28;20200;-50
2023/04/06 02:25:35;;;;;;;16.53;9.43;;;0.00;99.90;;;;;;5056134;28;20603;-48
2023/04/06 02:28:01;;;;;;;20.30;10.17;;;-0.10;99.90;;;;;;5056496;28;20553;-48
2023/04/06 02:30:27;;;;;;;14.93;9.33;;;-0.10;99.90;;;;;;5056051;28;20705;-49
2023/04/06 02:32:52;;;;;;;15.07;9.10;;;-0.10;99.90;;;;;;5056574;28;20236;-49
2023/04/06 02:35:18;;;;;;;14.33;8.67;;;-0.10;99.90;;;;;;5056379;28;20576;-50
2023/04/06 02:37:43;;;;;;;16.10;9.37;;;-0.20;99.90;;;;;;5056618;28;20214;-49
2023/04/06 02:40:09;;;;;;;14.53;9.03;;;-0.20;99.90;;;;;;5057247;28;20183;-49
2023/04/06 02:42:35;;;;;;;13.33;9.13;;;-0.30;99.90;;;;;;5057142;28;20655;-50
2023/04/06 02:45:01;;;;;;;14.27;8.80;;;-0.30;99.90;;;;;;5056476;28;20230;-49
2023/04/06 02:47:26;;;;;;;15.40;8.93;;;-0.30;99.90;;;;;;5056794;28;20187;-48
2023/04/06 02:49:52;;;;;;;13.77;8.23;;;-0.30;99.90;;;;;;5058760;28;20214;-44
2023/04/06 02:52:18;;;;;;;12.77;8.90;;;-0.30;99.90;;;;;;5056053;28;20198;-48
2023/04/06 02:54:43;;;;;;;15.03;8.70;;;-0.40;99.90;;;;;;5057616;28;20171;-43
2023/04/06 02:57:09;;;;;;;19.60;9.07;;;-0.40;99.90;;;;;;5057125;28;20219;-43
2023/04/06 02:59:34;;;;;;;14.60;8.90;;;-0.40;99.90;;;;;;5056210;28;20702;-44
2023/04/06 03:02:00;;;;;;;18.33;9.20;;;-0.50;99.90;;;;;;5057593;28;20192;-44
2023/04/06 03:04:25;;;;;;;16.33;9.90;;;-0.40;99.90;;;;;;5057703;28;20193;-43
2023/04/06 03:06:52;;;;;;;15.83;9.00;;;-0.50;99.90;;;;;;5059716;28;20183;-42
2023/04/06 03:09:17;;;;;;;16.40;9.30;;;-0.50;99.90;;;;;;5060685;28;20187;-43
2023/04/06 03:11:43;;;;;;;13.67;8.80;;;-0.50;99.90;;;;;;5060085;28;20287;-41
2023/04/06 03:14:09;;;;;;;14.90;8.97;;;-0.50;99.90;;;;;;5059358;28;20183;-42
2023/04/06 03:16:34;;;;;;;15.50;9.57;;;-0.60;99.90;;;;;;5055291;28;20561;-43
2023/04/06 03:19:00;;;;;;;15.50;9.87;;;-0.60;99.90;;;;;;5055502;28;20183;-45
2023/04/06 03:21:25;;;;;;;13.57;9.27;;;-0.60;99.90;;;;;;5055151;28;20214;-42
2023/04/06 03:23:51;;;;;;;12.83;8.93;;;-0.60;99.90;;;;;;5055257;28;20651;-42
2023/04/06 03:26:17;;;;;;;14.17;8.90;;;-0.60;99.90;;;;;;5054754;28;20267;-42
2023/04/06 03:28:42;;;;;;;13.37;8.97;;;-0.70;99.90;;;;;;5055076;28;20187;-45
2023/04/06 03:31:08;;;;;;;16.07;9.07;;;-0.70;99.90;;;;;;5054867;28;20264;-43
2023/04/06 03:33:33;;;;;;;15.13;9.27;;;-0.70;99.90;;;;;;5054656;28;20262;-44
2023/04/06 03:35:59;;;;;;;16.57;9.40;;;-0.70;99.90;;;;;;5054818;28;20199;-42
2023/04/06 03:38:24;;;;;;;17.27;9.07;;;-0.60;99.90;;;;;;5054586;28;20182;-43
2023/04/06 03:40:50;;;;;;;16.80;9.10;;;-0.60;99.90;;;;;;5054417;28;20172;-44
2023/04/06 03:43:15;;;;;;;15.30;9.17;;;-0.60;99.90;;;;;;5054431;28;20179;-43
2023/04/06 03:45:41;;;;;;;17.70;9.63;;;-0.60;99.90;;;;;;5054382;28;20183;-41
2023/04/06 03:48:07;;;;;;;14.43;9.47;;;-0.60;99.90;;;;;;5054390;28;20183;-43
2023/04/06 03:50:32;;;;;;;16.23;9.23;;;-0.60;99.90;;;;;;5054619;28;20516;-45
2023/04/06 03:52:58;;;;;;;18.17;8.80;;;-0.60;99.90;;;;;;5052940;28;20206;-42
2023/04/06 03:55:23;;;;;;;17.43;9.50;;;-0.60;99.90;;;;;;5054089;28;20693;-43
2023/04/06 03:57:49;;;;;;;14.03;8.67;;;-0.60;99.90;;;;;;5054125;28;20720;-45
2023/04/06 04:00:15;;;;;;;14.37;8.57;;;-0.60;99.90;;;;;;5054194;28;20186;-45
2023/04/06 04:02:40;;;;;;;19.67;8.53;;;-0.60;99.90;;;;;;5054044;28;20205;-45
2023/04/06 04:05:06;;;;;;;22.60;9.10;;;-0.70;99.90;;;;;;5054663;28;20180;-44
2023/04/06 04:07:32;;;;;;;17.97;9.63;;;-0.70;99.90;;;;;;5054271;28;20179;-43
2023/04/06 04:09:57;;;;;;;16.43;8.97;;;-0.70;99.90;;;;;;5053980;28;20257;-44
2023/04/06 04:12:23;;;;;;;13.77;8.30;;;-0.70;99.90;;;;;;5053838;28;20207;-43
2023/04/06 04:14:48;;;;;;;18.67;9.70;;;-0.70;99.90;;;;;;5054043;28;20198;-43
2023/04/06 04:17:14;;;;;;;17.40;10.47;;;-0.70;99.90;;;;;;5053807;28;20203;-44
2023/04/06 04:19:40;;;;;;;19.23;9.63;;;-0.70;99.90;;;;;;5053232;28;20186;-44
2023/04/06 04:22:06;;;;;;;15.53;8.80;;;-0.70;99.90;;;;;;5054167;28;20246;-44
2023/04/06 04:24:32;;;;;;;17.93;9.00;;;-0.70;99.90;;;;;;5054299;28;20544;-47
2023/04/06 04:27:00;;;;;;;15.87;9.27;;;-0.70;99.90;;;;;;5053988;28;20718;-45
2023/04/06 04:29:26;;;;;;;17.83;10.07;;;-0.70;99.90;;;;;;5052874;28;20421;-45
2023/04/06 04:31:52;;;;;;;18.93;9.97;;;-0.70;99.90;;;;;;5053951;28;20439;-45
2023/04/06 04:34:20;;;;;;;20.73;10.03;;;-0.60;99.90;;;;;;5054099;28;20190;-46
2023/04/06 04:36:46;;;;;;;19.23;10.53;;;-0.60;99.90;;;;;;5053786;28;20209;-44
2023/04/06 04:39:11;;;;;;;19.07;10.73;;;-0.60;99.90;;;;;;5054024;28;20181;-45
2023/04/06 04:41:37;;;;;;;20.00;9.93;;;-0.60;99.90;;;;;;5054496;28;20199;-44
2023/04/06 04:44:02;;;;;;;17.60;9.63;;;-0.60;99.90;;;;;;5054504;28;20191;-45
2023/04/06 04:46:28;;;;;;;17.40;9.77;;;-0.60;99.90;;;;;;5053951;28;20186;-44
2023/04/06 04:48:54;;;;;;;21.87;10.20;;;-0.60;99.90;;;;;;5053807;28;20225;-46
2023/04/06 04:51:19;;;;;;;22.53;10.17;;;-0.60;99.90;;;;;;5053672;28;20206;-45
2023/04/06 04:53:45;;;;;;;18.00;10.37;;;-0.50;99.90;;;;;;5054084;28;20191;-44
2023/04/06 04:56:10;;;;;;;17.67;10.13;;;-0.50;99.90;;;;;;5053579;28;20198;-44
2023/04/06 04:58:36;;;;;;;21.87;11.00;;;-0.40;99.90;;;;;;5053895;28;20240;-46
2023/04/06 05:01:02;;;;;;;17.43;9.97;;;-0.40;99.90;;;;;;5053916;28;20202;-45
2023/04/06 05:03:28;;;;;;;19.10;10.90;;;-0.40;99.90;;;;;;5053537;28;20325;-45
2023/04/06 05:05:54;;;;;;;24.30;10.77;;;-0.40;99.90;;;;;;5053927;28;20190;-44
2023/04/06 05:08:20;;;;;;;15.70;9.73;;;-0.40;99.90;;;;;;5053490;28;20191;-45
2023/04/06 05:10:46;;;;;;;18.50;11.00;;;-0.30;99.90;;;;;;5053388;28;20509;-44
2023/04/06 05:13:12;;;;;;;17.10;9.43;;;-0.30;99.90;;;;;;5053659;28;20194;-44
2023/04/06 05:15:40;;;;;;;19.17;10.37;;;-0.30;99.90;;;;;;5053377;28;20429;-44
2023/04/06 05:18:07;;;;;;;24.73;11.00;;;-0.30;99.90;;;;;;5052286;28;20179;-45
2023/04/06 05:20:33;;;;;;;27.73;10.17;;;-0.20;99.90;;;;;;5053615;28;20412;-44
2023/04/06 05:22:59;;;;;;;21.73;11.57;;;-0.20;99.90;;;;;;5054510;28;20320;-45
2023/04/06 05:25:25;;;;;;;20.13;10.77;;;-0.10;99.90;;;;;;5053351;28;20198;-44
2023/04/06 05:27:50;;;;;;;21.87;10.37;;;-0.10;99.90;;;;;;5053344;28;20776;-44
2023/04/06 05:30:16;;;;;;;21.73;11.30;;;0.00;99.90;;;;;;5055462;28;20183;-44
2023/04/06 05:32:44;;;;;;;16.83;10.50;;;0.10;99.90;;;;;;5057681;28;20202;-44
2023/04/06 05:35:10;;;;;;;17.70;11.07;;;0.10;99.90;;;;;;5057122;28;20179;-46
2023/04/06 05:37:35;;;;;;;18.33;11.13;;;0.20;99.90;;;;;;5057047;28;20460;-45
2023/04/06 05:40:01;;;;;;;26.20;11.50;;;0.30;99.90;;;;;;5057785;28;20421;-46
2023/04/06 05:42:26;;;;;;;21.27;10.40;;;0.30;99.90;;;;;;5056970;28;20199;-45
2023/04/06 05:44:52;;;;;;;20.50;10.43;;;0.40;99.90;;;;;;5057526;28;20195;-45
2023/04/06 05:47:18;;;;;;;20.13;11.53;;;0.50;99.90;;;;;;5057165;28;20182;-44
2023/04/06 05:49:44;;;;;;;21.30;11.63;;;0.50;99.90;;;;;;5057373;28;20187;-45
2023/04/06 05:52:10;;;;;;;27.03;11.43;;;0.60;99.90;;;;;;5057142;28;20582;-45
2023/04/06 05:54:36;;;;;;;28.17;12.73;;;0.70;99.90;;;;;;5057452;28;20535;-45
2023/04/06 05:57:03;;;;;;;18.80;10.53;;;0.80;99.90;;;;;;5056816;28;20226;-46
2023/04/06 05:59:30;;;;;;;18.70;11.00;;;0.90;99.90;;;;;;5057189;28;20181;-44
2023/04/06 06:01:56;;;;;;;18.60;11.30;;;0.90;99.90;;;;;;5056907;28;20199;-46
2023/04/06 06:04:21;;;;;;;26.17;11.37;;;1.00;99.90;;;;;;5057451;28;20183;-44
2023/04/06 06:06:47;;;;;;;20.27;11.77;;;1.20;99.90;;;;;;5056993;28;20190;-46
2023/04/06 06:09:12;;;;;;;30.30;13.07;;;1.30;99.90;;;;;;5056901;28;20191;-45
2023/04/06 06:11:38;;;;;;;22.13;11.90;;;1.40;99.90;;;;;;5055807;28;20302;-46
2023/04/06 06:14:04;;;;;;;24.13;12.63;;;1.60;99.90;;;;;;5056898;28;20277;-45
2023/04/06 06:16:29;;;;;;;25.57;12.33;;;1.70;99.90;;;;;;5057226;28;20577;-46
2023/04/06 06:18:55;;;;;;;22.07;12.50;;;1.80;99.90;;;;;;5056839;28;20188;-44
2023/04/06 06:21:21;;;;;;;23.47;12.27;;;2.00;99.90;;;;;;5057086;28;20203;-46
2023/04/06 06:23:49;;;;;;;31.20;13.43;;;2.10;99.90;;;;;;5058388;28;20211;-46
2023/04/06 06:26:15;;;;;;;26.37;13.73;;;2.20;99.90;;;;;;5056785;28;20183;-45
2023/04/06 06:28:40;;;;;;;27.80;12.77;;;2.40;99.90;;;;;;5056278;28;20184;-44
2023/04/06 06:31:06;;;;;;;21.97;12.70;;;2.50;99.90;;;;;;5056270;28;20210;-45
2023/04/06 06:33:32;;;;;;;20.93;11.80;;;2.60;99.90;;;;;;5055804;28;20198;-43
2023/04/06 06:35:58;;;;;;;31.80;12.67;;;2.70;99.90;;;;;;5055876;28;20206;-45
2023/04/06 06:38:23;;;;;;;23.30;12.73;;;2.80;99.90;;;;;;5055940;28;20255;-44
2023/04/06 06:40:49;;;;;;;20.20;12.47;;;3.00;99.90;;;;;;5055158;28;20178;-47
2023/04/06 06:43:15;;;;;;;26.33;13.07;;;3.10;99.90;;;;;;5055754;28;20225;-45
2023/04/06 06:45:40;;;;;;;20.97;12.77;;;3.10;99.90;;;;;;5056122;28;20596;-45
2023/04/06 06:48:06;;;;;;;29.20;14.17;;;3.30;99.90;;;;;;5056032;28;20239;-45
2023/04/06 06:50:31;;;;;;;25.97;13.90;;;3.40;99.90;;;;;;5055827;28;20655;-44
2023/04/06 06:52:57;;;;;;;23.43;11.90;;;3.50;99.90;;;;;;5055860;28;20224;-46
2023/04/06 06:55:23;;;;;;;24.20;13.33;;;3.60;99.90;;;;;;5055774;28;20577;-46
2023/04/06 06:57:48;;;;;;;25.40;11.70;;;3.70;99.90;;;;;;5055588;28;20200;-46
2023/04/06 07:00:15;;;;;;;30.93;12.27;;;3.80;99.90;;;;;;5055631;28;20192;-44
2023/04/06 07:02:40;;;;;;;21.20;13.10;;;3.90;99.90;;;;;;5054448;28;20200;-45
2023/04/06 07:05:06;;;;;;;22.27;11.80;;;4.00;99.90;;;;;;5055903;28;20191;-46
2023/04/06 07:07:35;;;;;;;22.53;12.27;;;4.20;99.90;;;;;;5055782;28;20184;-44
2023/04/06 07:10:01;;;;;;;24.97;12.53;;;4.40;99.90;;;;;;5055706;28;20176;-44
2023/04/06 07:12:27;;;;;;;21.57;10.93;;;4.70;99.90;;;;;;5055163;28;20200;-45
2023/04/06 07:14:52;;;;;;;21.83;11.07;;;4.90;99.90;;;;;;5055360;28;20656;-43
2023/04/06 07:17:18;;;;;;;24.47;12.13;;;5.00;99.90;;;;;;5055377;28;20377;-46
2023/04/06 07:19:44;;;;;;;29.00;12.40;;;5.10;99.90;;;;;;5055089;28;20184;-44
2023/04/06 07:22:10;;;;;;;22.70;11.97;;;5.20;99.90;;;;;;5056655;28;20200;-45
2023/04/06 07:24:36;;;;;;;21.93;10.57;;;5.30;99.90;;;;;;5055215;28;20177;-46
2023/04/06 07:27:01;;;;;;;23.00;10.97;;;5.50;99.90;;;;;;5054687;28;20189;-45
2023/04/06 07:29:27;;;;;;;20.33;12.50;;;5.60;99.90;;;;;;5054884;28;20180;-46
2023/04/06 07:31:53;;;;;;;21.93;13.03;;;5.80;99.90;;;;;;5054630;28;20223;-44
2023/04/06 07:34:19;;;;;;;21.73;11.87;;;5.90;99.90;;;;;;5054659;28;20188;-48
2023/04/06 07:36:45;;;;;;;20.00;11.63;;;6.10;99.90;;;;;;5055137;28;20205;-48
2023/04/06 07:39:10;;;;;;;20.67;11.53;;;6.30;99.90;;;;;;5054850;28;20572;-45
2023/04/06 07:41:36;;;;;;;23.20;11.70;;;6.40;99.90;;;;;;5054802;28;20202;-46
2023/04/06 07:44:02;;;;;;;19.17;11.03;;;6.50;99.90;;;;;;5054989;28;20182;-46
2023/04/06 07:46:27;;;;;;;16.60;10.63;;;6.60;99.90;;;;;;5054764;28;20178;-46
2023/04/06 07:48:53;;;;;;;21.53;11.50;;;6.80;99.90;;;;;;5054566;28;20194;-45
2023/04/06 07:51:19;;;;;;;19.80;10.27;;;6.90;99.90;;;;;;5054538;28;20238;-46
2023/04/06 07:53:45;;;;;;;18.43;10.70;;;7.00;99.90;;;;;;5054369;28;20554;-46
2023/04/06 07:56:11;;;;;;;17.70;10.33;;;7.10;99.90;;;;;;5054099;28;20210;-47
2023/04/06 07:58:37;;;;;;;19.97;10.67;;;7.30;99.90;;;;;;5054116;28;20289;-45
2023/04/06 08:01:03;;;;;;;17.20;10.40;;;7.40;99.90;;;;;;5054366;28;20672;-46
2023/04/06 08:03:29;;;;;;;16.67;10.50;;;7.60;99.90;;;;;;5054309;28;20185;-47
2023/04/06 08:05:55;;;;;;;21.47;11.07;;;7.80;99.90;;;;;;5054754;28;20184;-46
2023/04/06 08:08:21;;;;;;;19.07;11.77;;;7.90;99.90;;;;;;5053991;28;20183;-47
2023/04/06 08:10:48;;;;;;;14.73;9.70;;;8.10;99.90;;;;;;5053915;28;20176;-45
2023/04/06 08:13:14;;;;;;;18.00;11.30;;;8.20;99.90;;;;;;5052949;28;20526;-45
2023/04/06 08:15:39;;;;;;;21.10;10.53;;;8.40;99.90;;;;;;5054026;28;20195;-46
2023/04/06 08:18:05;;;;;;;17.10;11.33;;;8.40;99.90;;;;;;5053818;28;20180;-45
2023/04/06 08:20:31;;;;;;;21.60;11.37;;;8.50;99.90;;;;;;5054120;28;20182;-47
2023/04/06 08:22:56;;;;;;;16.83;10.80;;;8.60;99.90;;;;;;5054226;28;20200;-47
2023/04/06 08:25:22;;;;;;;22.37;11.50;;;8.70;99.90;;;;;;5053674;28;20172;-45
2023/04/06 08:27:47;;;;;;;15.70;10.60;;;8.80;99.90;;;;;;5053738;28;20198;-47
2023/04/06 08:30:15;;;;;;;15.50;10.33;;;8.90;99.90;;;;;;5053633;28;20181;-48
2023/04/06 08:32:41;;;;;;;20.60;10.87;;;9.00;99.90;;;;;;5053596;28;20295;-46
2023/04/06 08:35:07;;;;;;;18.40;10.33;;;9.00;99.90;;;;;;5053804;28;20242;-47
2023/04/06 08:37:33;;;;;;;19.03;11.17;;;9.10;99.90;;;;;;5053538;28;20233;-48
2023/04/06 08:39:58;;;;;;;16.90;10.57;;;9.20;99.90;;;;;;5053913;28;20220;-49
2023/04/06 08:42:26;;;;;;;17.27;10.13;;;9.30;99.90;;;;;;5053775;28;20204;-46
2023/04/06 08:44:52;;;;;;;16.93;11.07;;;9.50;99.90;;;;;;5053639;28;20260;-45
2023/04/06 08:47:18;;;;;;;16.93;10.17;;;9.50;99.90;;;;;;5053775;28;20189;-45
2023/04/06 08:49:45;;;;;;;22.13;10.70;;;9.60;99.90;;;;;;5053405;28;20238;-45
2023/04/06 08:52:11;;;;;;;22.57;10.30;;;9.70;99.90;;;;;;5053578;28;20225;-46
2023/04/06 08:54:37;;;;;;;15.80;9.60;;;9.80;99.90;;;;;;5053642;28;20209;-45
2023/04/06 08:57:04;;;;;;;18.20;10.50;;;9.90;99.90;;;;;;5053182;28;20219;-48
2023/04/06 08:59:32;;;;;;;18.50;10.57;;;10.00;99.90;;;;;;5053674;28;20221;-44
2023/04/06 09:02:00;;;;;;;16.33;10.73;;;10.10;99.90;;;;;;5053138;28;20690;-47
2023/04/06 09:04:26;;;;;;;19.13;9.70;;;10.20;99.90;;;;;;5055486;28;20315;-46
2023/04/06 09:06:52;;;;;;;14.40;10.07;;;10.30;99.90;;;;;;5060176;28;20213;-44
2023/04/06 09:09:18;;;;;;;17.23;10.13;;;10.40;99.90;;;;;;5060808;28;20189;-44
2023/04/06 09:11:51;;;;;;;15.17;9.23;;;10.40;99.90;;;;;;5059791;28;20204;-44
2023/04/06 09:14:32;;;;;;;18.07;10.07;;;10.50;99.90;;;;;;5060663;28;20178;-45
2023/04/06 09:16:58;;;;;;;17.57;8.97;;;10.50;99.90;;;;;;5060059;28;20541;-47
2023/04/06 09:19:24;;;;;;;16.50;9.83;;;10.60;99.90;;;;;;5059798;28;20233;-45
2023/04/06 09:21:50;;;;;;;15.80;9.00;;;10.60;99.90;;;;;;5060235;28;20203;-45
2023/04/06 09:24:18;;;;;;;16.97;9.83;;;10.70;99.90;;;;;;5060299;28;20187;-45
2023/04/06 09:26:47;;;;;;;18.40;10.13;;;10.80;99.90;;;;;;5060033;28;20575;-46
2023/04/06 09:29:23;;;;;;;18.23;10.33;;;11.00;99.90;;;;;;5059794;28;20290;-47
2023/04/06 09:31:49;;;;;;;20.97;9.97;;;11.10;99.90;;;;;;5060115;28;20294;-45
2023/04/06 09:34:25;;;;;;;16.47;9.93;;;11.30;99.90;;;;;;5059769;28;20288;-45
2023/04/06 09:36:52;;;;;;;18.43;9.77;;;11.40;99.90;;;;;;5059926;28;20218;-48
2023/04/06 09:39:22;;;;;;;21.53;10.03;;;11.50;99.90;;;;;;5062427;28;20191;-47
2023/04/06 09:41:50;;;;;;;17.57;10.07;;;11.70;99.90;;;;;;5063311;28;20207;-47
2023/04/06 09:44:16;;;;;;;17.63;9.93;;;11.90;99.90;;;;;;5063172;28;20172;-48
2023/04/06 09:46:43;;;;;;;14.63;10.27;;;12.00;99.90;;;;;;5063664;28;20191;-47
2023/04/06 09:49:10;;;;;;;15.33;9.67;;;12.20;99.90;;;;;;5062229;28;20195;-45
2023/04/06 09:51:38;;;;;;;17.60;10.40;;;12.30;99.90;;;;;;5062160;28;20202;-47
2023/04/06 09:54:05;;;;;;;20.43;9.57;;;12.50;99.90;;;;;;5062759;28;20183;-46
2023/04/06 09:56:37;;;;;;;15.27;9.43;;;12.60;99.90;;;;;;5060351;28;20208;-47
2023/04/06 09:59:08;;;;;;;18.67;10.23;;;12.70;99.90;;;;;;5060209;28;20553;-45
2023/04/06 10:01:36;;;;;;;18.67;9.63;;;12.80;99.90;;;;;;5059377;28;20563;-46
2023/04/06 10:04:20;;;;;;;16.93;10.00;;;12.90;99.90;;;;;;5059411;28;20196;-47
2023/04/06 10:06:51;;;;;;;18.37;9.73;;;13.00;99.90;;;;;;5059691;28;20176;-49
2023/04/06 10:09:18;;;;;;;14.93;9.53;;;13.00;99.90;;;;;;5059594;28;20196;-47
2023/04/06 10:11:45;;;;;;;15.80;9.23;;;13.10;99.90;;;;;;5059451;28;20242;-47
2023/04/06 10:14:11;;;;;;;18.50;10.17;;;13.10;99.90;;;;;;5059523;28;20184;-48
2023/04/06 10:16:37;;;;;;;14.70;9.50;;;13.20;99.90;;;;;;5057476;28;20204;-47
2023/04/06 10:19:10;;;;;;;15.83;9.30;;;13.30;99.90;;;;;;5056616;28;20175;-47
2023/04/06 10:21:38;;;;;;;16.93;9.17;;;13.20;99.90;;;;;;5056754;28;20719;-47
2023/04/06 10:24:10;;;;;;;15.47;9.13;;;13.20;99.90;;;;;;5056212;28;20172;-47
2023/04/06 10:26:36;;;;;;;17.37;9.60;;;13.20;99.90;;;;;;5055945;28;20577;-46
2023/04/06 10:29:05;;;;;;;15.93;9.57;;;13.10;99.90;;;;;;5055909;28;20172;-45
2023/04/06 10:31:31;;;;;;;17.70;8.87;;;13.10;99.90;;;;;;5055722;28;20608;-47
2023/04/06 10:34:01;;;;;;;17.27;8.80;;;13.10;99.90;;;;;;5055786;28;20180;-46
2023/04/06 10:36:31;;;;;;;15.57;8.83;;;13.10;99.90;;;;;;5056013;28;20203;-47
2023/04/06 10:38:59;;;;;;;13.70;8.63;;;13.00;99.90;;;;;;5055712;28;20169;-46
2023/04/06 10:41:36;;;;;;;15.30;9.17;;;13.10;99.90;;;;;;5055777;28;20210;-47
2023/04/06 10:44:02;;;;;;;16.20;9.27;;;13.10;99.90;;;;;;5056228;28;20520;-46
2023/04/06 10:46:32;;;;;;;14.70;9.17;;;13.20;99.90;;;;;;5055549;28;20644;-45
2023/04/06 10:49:09;;;;;;;15.53;9.50;;;13.30;99.90;;;;;;5055792;28;20179;-47
2023/04/06 10:51:38;;;;;;;15.33;8.93;;;13.30;99.90;;;;;;5055759;28;20211;-46
2023/04/06 10:54:05;;;;;;;16.40;9.47;;;13.40;99.90;;;;;;5056093;28;20176;-48
2023/04/06 10:56:34;;;;;;;17.47;8.80;;;13.50;99.90;;;;;;5055251;28;20200;-47
2023/04/06 10:59:00;;;;;;;11.43;8.10;;;13.60;99.90;;;;;;5055290;28;20181;-48
2023/04/06 11:01:27;;;;;;;12.73;7.83;;;13.60;99.90;;;;;;5055821;28;20785;-48
2023/04/06 11:03:54;;;;;;;13.83;8.50;;;13.60;99.90;;;;;;5055478;28;20179;-47
2023/04/06 11:06:25;;;;;;;11.37;7.50;;;13.60;99.90;;;;;;5055213;28;20203;-48
2023/04/06 11:08:51;;;;;;;12.13;7.63;;;13.70;99.90;;;;;;5055486;28;20203;-48
2023/04/06 11:11:19;;;;;;;10.90;7.03;;;13.70;99.90;;;;;;5055294;28;20200;-47
2023/04/06 11:13:48;;;;;;;13.37;8.17;;;13.70;99.90;;;;;;5055052;28;20522;-48
2023/04/06 11:16:15;;;;;;;11.37;7.87;;;13.80;99.90;;;;;;5055347;28;20652;-46
2023/04/06 11:18:52;;;;;;;15.77;8.73;;;13.90;99.90;;;;;;5055255;28;20184;-47
2023/04/06 11:21:19;;;;;;;14.43;7.90;;;13.80;99.90;;;;;;5055047;28;20207;-46
2023/04/06 11:23:45;;;;;;;12.50;7.43;;;13.80;99.90;;;;;;5055343;28;20230;-47
2023/04/06 11:26:12;;;;;;;10.10;6.67;;;13.80;99.90;;;;;;5054878;28;20180;-46
2023/04/06 11:28:39;;;;;;;7.90;6.60;;;13.70;99.90;;;;;;5054500;28;20191;-49
2023/04/06 11:31:05;;;;;;;10.53;6.80;;;13.60;99.90;;;;;;5054744;28;20249;-47
2023/04/06 11:33:37;;;;;;;10.27;6.50;;;13.50;99.90;;;;;;5054787;28;20176;-48
2023/04/06 11:36:02;;;;;;;13.17;6.77;;;13.50;99.90;;;;;;5054914;28;20574;-47
2023/04/06 11:38:29;;;;;;;12.17;6.63;;;13.50;99.90;;;;;;5053346;28;20188;-46
2023/04/06 11:40:55;;;;;;;12.53;6.27;;;13.40;99.90;;;;;;5054453;28;20176;-48
2023/04/06 11:43:29;;;;;;;8.07;5.63;;;13.50;99.90;;;;;;5054568;28;20187;-46
2023/04/06 11:46:02;;;;;;;8.60;4.67;;;13.50;99.90;;;;;;5054677;28;20172;-48
2023/04/06 11:48:28;;;;;;;9.80;4.90;;;13.60;99.90;;;;;;5055566;28;20253;-50
2023/04/06 11:51:01;;;;;;;5.97;4.70;;;13.60;99.90;;;;;;5054962;28;20177;-52
2023/04/06 11:53:29;;;;;;;9.70;6.00;;;13.70;99.90;;;;;;5054591;28;20176;-51
2023/04/06 11:55:55;;;;;;;6.27;4.23;;;13.70;99.90;;;;;;5054561;28;20200;-51
2023/04/06 11:58:21;;;;;;;6.67;5.00;;;13.80;99.90;;;;;;5054293;28;20258;-51
2023/04/06 12:00:47;;;;;;;7.23;4.63;;;13.80;99.90;;;;;;5054033;28;20172;-52
2023/04/06 12:03:12;;;;;;;6.10;4.30;;;13.90;99.90;;;;;;5054309;28;20203;-49
2023/04/06 12:05:39;;;;;;;6.10;4.87;;;13.90;99.90;;;;;;5054005;28;20188;-53
2023/04/06 12:08:04;;;;;;;6.10;4.70;;;13.90;99.90;;;;;;5054046;28;20259;-52
2023/04/06 12:10:30;;;;;;;7.97;5.10;;;13.90;99.90;;;;;;5054202;28;20311;-51
2023/04/06 12:12:56;;;;;;;8.27;5.87;;;13.90;99.90;;;;;;5054343;28;20275;-52
2023/04/06 12:15:21;;;;;;;9.13;5.63;;;13.90;99.90;;;;;;5053902;28;20168;-42
2023/04/06 12:17:47;;;;;;;8.13;5.63;;;13.90;99.90;;;;;;5054654;28;20207;-46
2023/04/06 12:20:13;;;;;;;11.83;6.20;;;13.80;99.90;;;;;;5054417;28;20513;-48
2023/04/06 12:22:39;;;;;;;8.93;5.90;;;13.70;99.90;;;;;;5055812;28;20210;-47
2023/04/06 12:25:06;;;;;;;10.87;5.77;;;13.50;99.90;;;;;;5054070;28;20598;-46
2023/04/06 12:27:32;;;;;;;9.83;6.50;;;13.40;99.90;;;;;;5053677;28;20184;-47
2023/04/06 12:29:57;;;;;;;8.53;6.13;;;13.30;99.90;;;;;;5053492;28;20552;-46
2023/04/06 12:32:23;;;;;;;9.93;6.10;;;13.30;99.90;;;;;;5040926;28;20212;-46
2023/04/06 12:34:49;;;;;;;7.40;5.70;;;13.30;99.90;;;;;;5032608;28;20184;-46